createdAt,value
2018-10-09T16:51:36.503Z,17.20
2018-10-09T16:54:05.681Z,17.00
2018-10-09T16:56:34.474Z,17.00
2018-10-09T16:59:03.120Z,16.90
2018-10-09T17:01:32.212Z,16.90
2018-10-09T17:04:01.467Z,16.80
2018-10-09T17:06:30.115Z,16.70
2018-10-09T17:08:59.243Z,16.60
2018-10-09T17:11:27.965Z,16.60
2018-10-09T17:13:56.169Z,16.50
2018-10-09T17:16:24.834Z,16.40
2018-10-09T17:18:53.301Z,16.30
2018-10-09T17:21:21.674Z,16.30
2018-10-09T17:23:50.269Z,16.20
2018-10-09T17:26:19.503Z,16.20
2018-10-09T17:28:48.211Z,16.10
2018-10-09T17:31:16.702Z,16.00
2018-10-09T17:33:45.286Z,15.90
2018-10-09T17:36:13.842Z,15.80
2018-10-09T17:38:42.383Z,15.80
2018-10-09T17:41:11.130Z,15.70
2018-10-09T17:43:39.690Z,15.60
2018-10-09T17:46:08.350Z,15.50
2018-10-09T17:48:36.841Z,15.50
2018-10-09T17:51:05.370Z,15.40
2018-10-09T17:53:35.133Z,15.40
2018-10-09T17:56:03.681Z,15.30
2018-10-09T17:58:33.886Z,15.20
2018-10-09T18:01:02.636Z,15.20
2018-10-09T18:03:30.920Z,15.10
2018-10-09T18:05:59.149Z,15.10
2018-10-09T18:08:27.347Z,15.00
2018-10-09T18:10:55.725Z,15.00
2018-10-09T18:13:24.397Z,15.00
2018-10-09T18:15:53.891Z,14.90
2018-10-09T18:18:22.390Z,14.90
2018-10-09T18:20:52.595Z,14.80
2018-10-09T18:23:21.121Z,14.70
2018-10-09T18:25:49.866Z,14.60
2018-10-09T18:28:19.014Z,14.60
2018-10-09T18:30:47.554Z,14.50
2018-10-09T18:33:15.767Z,14.50
2018-10-09T18:35:43.970Z,14.50
2018-10-09T18:38:12.128Z,14.40
2018-10-09T18:40:40.399Z,14.40
2018-10-09T18:43:08.484Z,14.30
2018-10-09T18:45:36.657Z,14.20
2018-10-09T18:48:04.831Z,14.20
2018-10-09T18:50:32.996Z,14.10
2018-10-09T18:53:01.180Z,14.10
2018-10-09T18:55:29.355Z,14.00
2018-10-09T18:57:57.504Z,14.00
2018-10-09T19:00:25.652Z,13.90
2018-10-09T19:02:53.811Z,13.90
2018-10-09T19:05:21.984Z,13.80
2018-10-09T19:07:50.159Z,13.80
2018-10-09T19:10:18.316Z,13.70
2018-10-09T19:12:46.506Z,13.70
2018-10-09T19:15:14.667Z,13.70
2018-10-09T19:17:42.891Z,13.60
2018-10-09T19:20:11.064Z,13.60
2018-10-09T19:22:39.240Z,13.50
2018-10-09T19:25:07.622Z,13.50
2018-10-09T19:27:35.793Z,13.40
2018-10-09T19:30:03.993Z,13.40
2018-10-09T19:32:32.237Z,13.30
2018-10-09T19:35:00.345Z,13.20
2018-10-09T19:37:28.538Z,13.20
2018-10-09T19:39:56.735Z,13.10
2018-10-09T19:42:24.909Z,13.10
2018-10-09T19:44:53.068Z,13.10
2018-10-09T19:47:21.263Z,13.00
2018-10-09T19:49:49.537Z,13.00
2018-10-09T19:52:17.707Z,13.00
2018-10-09T19:54:45.888Z,13.00
2018-10-09T19:57:14.059Z,13.00
2018-10-09T19:59:42.209Z,12.90
2018-10-09T20:02:10.423Z,12.90
2018-10-09T20:04:38.824Z,12.80
2018-10-09T20:07:06.980Z,12.70
2018-10-09T20:09:35.142Z,12.70
2018-10-09T20:12:03.313Z,12.70
2018-10-09T20:14:31.508Z,12.60
2018-10-09T20:16:59.704Z,12.60
2018-10-09T20:19:27.885Z,12.60
2018-10-09T20:21:56.073Z,12.60
2018-10-09T20:24:24.258Z,12.60
2018-10-09T20:26:52.440Z,12.60
2018-10-09T20:29:20.605Z,12.50
2018-10-09T20:31:48.776Z,12.50
2018-10-09T20:34:17.090Z,12.40
2018-10-09T20:36:45.286Z,12.30
2018-10-09T20:39:13.497Z,12.30
2018-10-09T20:41:41.753Z,12.30
2018-10-09T20:44:09.934Z,12.30
2018-10-09T20:46:38.081Z,12.30
2018-10-09T20:49:06.626Z,12.20
2018-10-09T20:51:34.806Z,12.20
2018-10-09T20:54:02.972Z,12.20
2018-10-09T20:56:31.146Z,12.10
2018-10-09T20:58:59.458Z,12.20
